Terminal Aerodrome Forecast
Issued by NWS

Home | Current Version | Previous Version | Text Only | Print | Product List | Glossary Off
Versions: 1 2 3 4 5 6 7 8 9 10 11 12 13 14 15 16 17 18 19 20 21 22 23 24

427
FTUS43 KMPX 090707 AAA
TAFAXN
TAF AMD
KAXN 090707Z 0907/1006 34017KT P6SM BKN025
     FM090930 34015KT P6SM SCT025
     FM091200 34013KT P6SM SKC
     FM100000 33009KT P6SM SCT250=

USA.gov is the U.S. government's official web portal to all federal, state and local government web resources and services.